createdAt,value
2018-08-11T00:00:30.848Z,15.48
2018-08-11T00:02:59.032Z,15.54
2018-08-11T00:05:27.185Z,15.57
2018-08-11T00:07:55.385Z,15.72
2018-08-11T00:10:23.646Z,15.68
2018-08-11T00:12:51.795Z,15.50
2018-08-11T00:15:20.589Z,15.44
2018-08-11T00:17:48.688Z,15.45
2018-08-11T00:20:22.432Z,15.55
2018-08-11T00:22:50.679Z,15.73
2018-08-11T00:25:18.851Z,15.61
2018-08-11T00:27:46.927Z,15.57
2018-08-11T00:30:16.536Z,15.45
2018-08-11T00:32:44.710Z,15.25
2018-08-11T00:35:13.858Z,15.15
2018-08-11T00:37:42.451Z,15.17
2018-08-11T00:40:16.648Z,15.17
2018-08-11T00:42:45.966Z,15.07
2018-08-11T00:45:15.083Z,15.17
2018-08-11T00:47:43.424Z,15.38
2018-08-11T00:50:14.053Z,15.31
2018-08-11T00:52:42.367Z,15.23
2018-08-11T00:55:12.175Z,14.95
2018-08-11T00:57:40.397Z,14.87
2018-08-11T01:00:11.125Z,14.75
2018-08-11T01:02:39.746Z,14.62
2018-08-11T01:05:09.984Z,14.55
2018-08-11T01:07:38.346Z,14.52
2018-08-11T01:10:07.121Z,14.52
2018-08-11T01:12:35.260Z,14.45
2018-08-11T01:15:03.948Z,14.52
2018-08-11T01:17:32.043Z,14.79
2018-08-11T01:20:00.191Z,14.89
2018-08-11T01:22:28.308Z,14.76
2018-08-11T01:24:56.415Z,15.03
2018-08-11T01:27:24.523Z,14.92
2018-08-11T01:29:52.927Z,14.71
2018-08-11T01:32:20.957Z,14.55
2018-08-11T01:34:49.095Z,14.42
2018-08-11T01:37:17.324Z,14.40
2018-08-11T01:39:45.503Z,14.35
2018-08-11T01:42:13.706Z,14.34
2018-08-11T01:44:41.954Z,14.36
2018-08-11T01:47:10.125Z,14.23
2018-08-11T01:49:38.234Z,14.22
2018-08-11T01:52:06.352Z,14.15
2018-08-11T01:54:34.705Z,14.16
2018-08-11T01:57:02.873Z,14.28
2018-08-11T01:59:30.919Z,14.23
2018-08-11T02:01:59.007Z,14.18
2018-08-11T02:04:27.088Z,14.17
2018-08-11T02:06:55.145Z,14.12
2018-08-11T02:09:23.225Z,14.03
2018-08-11T02:11:51.456Z,14.10
2018-08-11T02:14:19.562Z,14.06
2018-08-11T02:16:47.591Z,14.02
2018-08-11T02:19:15.670Z,13.97
2018-08-11T02:21:43.796Z,13.96
2018-08-11T02:24:11.911Z,14.00
2018-08-11T02:26:40.057Z,13.94
2018-08-11T02:29:08.194Z,13.87
2018-08-11T02:31:36.249Z,13.82
2018-08-11T02:34:04.297Z,13.84
2018-08-11T02:36:32.345Z,13.83
2018-08-11T02:39:00.500Z,13.81
2018-08-11T02:41:28.643Z,13.80
2018-08-11T02:43:56.811Z,13.68
2018-08-11T02:46:24.947Z,13.64
2018-08-11T02:48:53.049Z,13.64
2018-08-11T02:51:21.139Z,13.61
2018-08-11T02:53:49.282Z,13.63
2018-08-11T02:56:17.378Z,13.59
2018-08-11T02:58:45.501Z,13.58
2018-08-11T03:01:13.693Z,13.56
2018-08-11T03:03:41.807Z,13.57
2018-08-11T03:06:09.877Z,13.60
2018-08-11T03:08:37.919Z,13.56
2018-08-11T03:11:06.063Z,13.56
2018-08-11T03:13:34.062Z,13.57
2018-08-11T03:16:02.137Z,13.49
2018-08-11T03:18:30.460Z,13.54
2018-08-11T03:20:58.523Z,13.56
2018-08-11T03:23:26.833Z,13.61
2018-08-11T03:25:54.953Z,13.60
2018-08-11T03:28:23.080Z,13.73
2018-08-11T03:30:51.171Z,13.72
2018-08-11T03:33:19.422Z,13.71
2018-08-11T03:35:47.725Z,13.74
2018-08-11T03:38:19.283Z,13.78
2018-08-11T03:40:47.558Z,13.82
2018-08-11T03:43:15.934Z,13.90
2018-08-11T03:45:44.039Z,14.04
2018-08-11T03:48:12.097Z,14.84
2018-08-11T03:50:40.474Z,15.89
2018-08-11T03:53:08.874Z,16.82
2018-08-11T03:55:37.058Z,17.73
2018-08-11T03:58:05.386Z,18.45
2018-08-11T04:00:33.627Z,19.13
2018-08-11T04:03:01.841Z,19.82
2018-08-11T04:05:30.107Z,20.46
2018-08-11T04:07:58.406Z,21.05
2018-08-11T04:10:26.593Z,21.30
2018-08-11T04:12:54.803Z,21.94
2018-08-11T04:15:22.915Z,22.27
2018-08-11T04:17:51.051Z,22.08
2018-08-11T04:20:19.275Z,22.25
2018-08-11T04:22:47.655Z,22.49
2018-08-11T04:25:15.764Z,22.89
2018-08-11T04:27:43.990Z,22.80
2018-08-11T04:30:12.054Z,23.03
2018-08-11T04:32:40.577Z,23.22
2018-08-11T04:35:08.909Z,23.30
2018-08-11T04:37:37.104Z,23.32
2018-08-11T04:40:05.487Z,23.38
2018-08-11T04:42:33.631Z,23.62
2018-08-11T04:45:01.921Z,23.38
2018-08-11T04:47:30.051Z,23.46
2018-08-11T04:49:58.227Z,23.49
2018-08-11T04:52:26.337Z,23.33
2018-08-11T04:54:54.412Z,23.69
2018-08-11T04:57:22.472Z,23.63
2018-08-11T04:59:50.636Z,23.78
2018-08-11T05:02:19.040Z,23.56
2018-08-11T05:04:47.310Z,22.84
2018-08-11T05:07:15.596Z,22.37
2018-08-11T05:09:43.844Z,22.46
2018-08-11T05:12:12.155Z,22.57
2018-08-11T05:14:40.544Z,22.12
2018-08-11T05:17:09.085Z,22.74
2018-08-11T05:19:37.365Z,22.68
2018-08-11T05:22:05.640Z,22.96
2018-08-11T05:24:34.133Z,23.55
2018-08-11T05:27:02.331Z,23.65
2018-08-11T05:29:30.504Z,23.46
2018-08-11T05:31:58.828Z,23.49
2018-08-11T05:34:27.185Z,24.26
2018-08-11T05:36:55.488Z,23.72
2018-08-11T05:39:23.606Z,24.58
2018-08-11T05:41:51.738Z,24.13
2018-08-11T05:44:19.859Z,23.85
2018-08-11T05:46:47.915Z,24.29
2018-08-11T05:49:16.071Z,24.64
2018-08-11T05:51:44.344Z,24.93
2018-08-11T05:54:12.516Z,25.22
2018-08-11T05:56:40.645Z,24.53
2018-08-11T05:59:08.733Z,24.29
2018-08-11T06:01:36.808Z,24.33
2018-08-11T06:04:05.241Z,24.46
2018-08-11T06:06:33.946Z,24.00
2018-08-11T06:09:02.219Z,24.81
2018-08-11T06:11:30.557Z,24.65
2018-08-11T06:13:58.968Z,23.87
2018-08-11T06:16:27.174Z,23.97
2018-08-11T06:18:55.969Z,23.60
2018-08-11T06:21:24.269Z,23.87
2018-08-11T06:23:52.837Z,23.50
2018-08-11T06:26:21.285Z,23.16
2018-08-11T06:28:49.434Z,23.69
2018-08-11T06:31:18.823Z,24.44
2018-08-11T06:33:47.815Z,23.88
2018-08-11T06:36:16.268Z,23.74
2018-08-11T06:38:44.986Z,24.06
2018-08-11T06:41:13.374Z,24.74
2018-08-11T06:43:41.601Z,24.43
2018-08-11T06:46:09.743Z,23.98
2018-08-11T06:48:37.955Z,23.74
2018-08-11T06:51:06.297Z,24.00
2018-08-11T06:53:34.528Z,23.87
2018-08-11T06:56:02.727Z,23.92
2018-08-11T06:58:31.202Z,24.35
2018-08-11T07:00:59.529Z,24.37
2018-08-11T07:03:27.825Z,25.14
2018-08-11T07:05:56.282Z,25.07
2018-08-11T07:08:26.634Z,24.88
2018-08-11T07:10:57.180Z,24.87
2018-08-11T07:13:26.682Z,24.97
2018-08-11T07:16:02.872Z,25.42
2018-08-11T07:18:31.650Z,26.00
2018-08-11T07:21:00.939Z,25.66
2018-08-11T07:23:30.219Z,24.83
2018-08-11T07:25:58.654Z,25.63
2018-08-11T07:28:26.972Z,25.42
2018-08-11T07:30:56.783Z,25.90
2018-08-11T07:33:26.018Z,25.81
2018-08-11T07:35:56.708Z,25.93
2018-08-11T07:38:26.999Z,25.66
2018-08-11T07:40:56.630Z,25.78
2018-08-11T07:43:25.416Z,26.21
2018-08-11T07:45:54.883Z,25.87
2018-08-11T07:48:24.268Z,25.92
2018-08-11T07:50:52.647Z,25.77
2018-08-11T07:53:21.320Z,26.15
2018-08-11T07:55:50.257Z,26.52
2018-08-11T07:58:19.577Z,26.30
2018-08-11T08:00:50.873Z,26.17
2018-08-11T08:03:20.663Z,26.67
2018-08-11T08:05:49.021Z,26.80
2018-08-11T08:08:17.462Z,26.88
2018-08-11T08:10:51.719Z,26.96
2018-08-11T08:13:20.397Z,27.16
2018-08-11T08:15:49.744Z,26.59
2018-08-11T08:18:20.967Z,26.25
2018-08-11T08:20:53.413Z,26.47
2018-08-11T08:23:22.186Z,26.46
2018-08-11T08:25:51.753Z,26.62
2018-08-11T08:28:20.553Z,27.17
2018-08-11T08:30:48.989Z,27.18
2018-08-11T08:33:17.490Z,27.28
2018-08-11T08:35:46.010Z,27.67
2018-08-11T08:38:14.488Z,27.76
2018-08-11T08:40:43.170Z,26.54
2018-08-11T08:43:11.452Z,26.54
2018-08-11T08:45:39.785Z,26.20
2018-08-11T08:48:08.117Z,26.32
2018-08-11T08:50:36.939Z,26.97
2018-08-11T08:53:05.400Z,27.28
2018-08-11T08:55:33.949Z,27.23
2018-08-11T08:58:02.037Z,27.38
2018-08-11T09:00:30.390Z,27.51
2018-08-11T09:02:58.965Z,27.81
2018-08-11T09:05:27.299Z,27.75
2018-08-11T09:07:55.534Z,27.37
2018-08-11T09:10:23.713Z,26.86
2018-08-11T09:12:51.956Z,27.38
2018-08-11T09:15:20.441Z,27.28
2018-08-11T09:17:48.820Z,27.52
2018-08-11T09:20:17.279Z,27.92
2018-08-11T09:22:45.551Z,27.54
2018-08-11T09:25:13.662Z,28.29
2018-08-11T09:27:41.818Z,28.57
2018-08-11T09:30:10.046Z,29.22
2018-08-11T09:32:38.177Z,29.81
2018-08-11T09:35:06.892Z,28.62
2018-08-11T09:37:35.069Z,27.81
2018-08-11T09:40:03.738Z,27.76
2018-08-11T09:42:32.707Z,27.88
2018-08-11T09:45:01.032Z,28.02
2018-08-11T09:47:29.241Z,28.12
2018-08-11T09:49:58.008Z,27.41
2018-08-11T09:52:26.541Z,27.21
2018-08-11T09:54:55.305Z,28.31
2018-08-11T09:57:23.390Z,28.32
2018-08-11T09:59:52.001Z,28.40
2018-08-11T10:02:21.463Z,28.93
2018-08-11T10:04:50.601Z,28.86
2018-08-11T10:07:19.692Z,28.99
2018-08-11T10:09:49.017Z,29.50
2018-08-11T10:12:18.864Z,30.12
2018-08-11T10:14:47.919Z,30.05
2018-08-11T10:17:17.288Z,29.54
2018-08-11T10:19:45.983Z,28.79
2018-08-11T10:22:15.590Z,29.02
2018-08-11T10:24:46.082Z,28.68
2018-08-11T10:27:15.656Z,29.42
2018-08-11T10:29:44.496Z,29.90
2018-08-11T10:32:13.051Z,29.13
2018-08-11T10:34:41.507Z,29.02
2018-08-11T10:37:10.203Z,28.83
2018-08-11T10:39:39.905Z,28.99
2018-08-11T10:42:11.233Z,28.93
2018-08-11T10:44:40.123Z,28.71
2018-08-11T10:47:09.962Z,29.46
2018-08-11T10:49:38.411Z,30.07
2018-08-11T10:52:07.536Z,30.19
2018-08-11T10:54:41.088Z,30.24
2018-08-11T10:57:11.130Z,30.47
2018-08-11T10:59:43.888Z,30.66
2018-08-11T11:02:14.260Z,30.68
2018-08-11T11:04:43.080Z,30.35
2018-08-11T11:07:12.152Z,29.92
2018-08-11T11:09:41.619Z,29.43
2018-08-11T11:12:10.505Z,29.15
2018-08-11T11:14:39.444Z,29.20
2018-08-11T11:17:08.049Z,28.88
2018-08-11T11:19:36.726Z,29.02
2018-08-11T11:22:06.043Z,29.06
2018-08-11T11:24:35.447Z,28.66
2018-08-11T11:27:04.395Z,28.62
2018-08-11T11:29:34.157Z,28.41
2018-08-11T11:32:03.318Z,28.92
2018-08-11T11:34:32.193Z,29.34
2018-08-11T11:37:01.748Z,28.99
2018-08-11T11:39:30.860Z,29.20
2018-08-11T11:41:59.665Z,28.98
2018-08-11T11:44:28.225Z,29.41
2018-08-11T11:46:56.598Z,28.70
2018-08-11T11:49:25.291Z,28.34
2018-08-11T11:51:54.033Z,28.79
2018-08-11T11:54:22.655Z,28.70
2018-08-11T11:56:51.257Z,28.69
2018-08-11T11:59:19.562Z,28.69
2018-08-11T12:01:48.868Z,29.01
2018-08-11T12:04:17.296Z,29.02
2018-08-11T12:06:45.822Z,28.79
2018-08-11T12:09:14.088Z,28.90
2018-08-11T12:11:42.410Z,29.19
2018-08-11T12:14:11.080Z,29.31
2018-08-11T12:16:39.861Z,29.67
2018-08-11T12:19:08.145Z,29.58
2018-08-11T12:21:36.448Z,29.04
2018-08-11T12:24:05.268Z,28.90
2018-08-11T12:26:33.711Z,28.80
2018-08-11T12:29:02.221Z,28.78
2018-08-11T12:31:31.684Z,28.47
2018-08-11T12:34:00.104Z,28.46
2018-08-11T12:36:28.808Z,28.41
2018-08-11T12:38:58.341Z,28.43
2018-08-11T12:41:27.060Z,28.86
2018-08-11T12:43:55.872Z,29.23
2018-08-11T12:46:24.521Z,29.02
2018-08-11T12:48:53.453Z,28.90
2018-08-11T12:51:22.391Z,29.18
2018-08-11T12:53:50.959Z,29.37
2018-08-11T12:56:20.591Z,29.31
2018-08-11T12:58:49.085Z,29.27
2018-08-11T13:01:17.802Z,28.92
2018-08-11T13:03:46.388Z,28.56
2018-08-11T13:06:15.063Z,28.66
2018-08-11T13:08:44.045Z,28.66
2018-08-11T13:11:12.870Z,28.95
2018-08-11T13:13:41.805Z,28.80
2018-08-11T13:16:11.301Z,28.76
2018-08-11T13:18:42.959Z,28.63
2018-08-11T13:21:14.467Z,28.83
2018-08-11T13:23:45.276Z,29.16
2018-08-11T13:26:16.339Z,29.16
2018-08-11T13:28:46.802Z,29.38
2018-08-11T13:31:16.358Z,29.41
2018-08-11T13:33:45.831Z,29.26
2018-08-11T13:36:15.296Z,29.41
2018-08-11T13:38:47.843Z,29.49
2018-08-11T13:41:16.226Z,29.22
2018-08-11T13:43:44.601Z,28.81
2018-08-11T13:46:12.884Z,28.55
2018-08-11T13:48:41.180Z,28.60
2018-08-11T13:51:09.612Z,28.41
2018-08-11T13:53:38.129Z,28.59
2018-08-11T13:56:06.462Z,28.40
2018-08-11T13:58:34.935Z,28.42
2018-08-11T14:01:03.736Z,28.36
2018-08-11T14:03:32.189Z,28.37
2018-08-11T14:06:00.730Z,28.08
2018-08-11T14:08:29.395Z,27.46
2018-08-11T14:10:58.504Z,26.96
2018-08-11T14:13:27.173Z,27.03
2018-08-11T14:15:55.884Z,27.42
2018-08-11T14:18:24.668Z,27.45
2018-08-11T14:20:57.045Z,27.24
2018-08-11T14:23:31.074Z,27.13
2018-08-11T14:26:12.402Z,27.00
2018-08-11T14:28:42.476Z,27.03
2018-08-11T14:31:13.391Z,27.06
2018-08-11T14:33:43.123Z,26.93
2018-08-11T14:36:17.361Z,26.96
2018-08-11T14:38:47.241Z,27.07
2018-08-11T14:41:16.126Z,26.98
2018-08-11T14:43:46.123Z,26.73
2018-08-11T14:46:14.889Z,26.48
2018-08-11T14:48:43.672Z,26.45
2018-08-11T14:51:12.746Z,26.45
2018-08-11T14:53:41.750Z,26.45
2018-08-11T14:56:10.429Z,26.38
2018-08-11T14:58:38.903Z,26.44
2018-08-11T15:01:08.185Z,26.47
2018-08-11T15:03:39.058Z,26.44
2018-08-11T15:06:08.075Z,26.44
2018-08-11T15:08:36.773Z,26.41
2018-08-11T15:11:05.371Z,26.33
2018-08-11T15:13:33.959Z,26.26
2018-08-11T15:16:02.662Z,26.12
2018-08-11T15:18:31.247Z,26.16
2018-08-11T15:21:00.544Z,26.17
2018-08-11T15:23:28.971Z,26.08
2018-08-11T15:25:58.120Z,26.03
2018-08-11T15:28:26.608Z,25.96
2018-08-11T15:30:55.145Z,25.94
2018-08-11T15:33:23.855Z,25.90
2018-08-11T15:35:52.304Z,25.84
2018-08-11T15:38:20.917Z,25.88
2018-08-11T15:40:49.467Z,25.74
2018-08-11T15:43:18.018Z,25.73
2018-08-11T15:45:46.540Z,25.64
2018-08-11T15:48:15.456Z,25.48
2018-08-11T15:50:44.005Z,25.58
2018-08-11T15:53:12.535Z,25.57
2018-08-11T15:55:41.248Z,25.31
2018-08-11T15:58:09.693Z,25.35
2018-08-11T16:00:38.915Z,25.32
2018-08-11T16:03:07.454Z,25.23
2018-08-11T16:05:36.020Z,25.17
2018-08-11T16:08:04.838Z,24.97
2018-08-11T16:10:33.084Z,24.98
2018-08-11T16:13:06.452Z,24.96
2018-08-11T16:15:34.688Z,24.92
2018-08-11T16:18:02.838Z,24.80
2018-08-11T16:20:31.068Z,24.60
2018-08-11T16:22:59.334Z,24.52
2018-08-11T16:25:27.628Z,24.43
2018-08-11T16:27:55.984Z,24.30
2018-08-11T16:30:24.461Z,24.28
2018-08-11T16:32:53.200Z,24.26
2018-08-11T16:35:27.985Z,24.08
2018-08-11T16:37:57.414Z,24.14
2018-08-11T16:40:26.878Z,23.94
2018-08-11T16:42:55.887Z,23.81
2018-08-11T16:45:27.288Z,23.90
2018-08-11T16:47:56.984Z,23.76
2018-08-11T16:50:26.228Z,23.60
2018-08-11T16:52:54.759Z,23.29
2018-08-11T16:55:23.209Z,23.11
2018-08-11T16:57:51.514Z,22.84
2018-08-11T17:00:20.372Z,22.83
2018-08-11T17:02:48.734Z,22.55
2018-08-11T17:05:17.076Z,22.60
2018-08-11T17:07:45.885Z,22.45
2018-08-11T17:10:14.271Z,22.20
2018-08-11T17:12:42.866Z,22.00
2018-08-11T17:15:11.215Z,21.84
2018-08-11T17:17:39.622Z,21.83
2018-08-11T17:20:08.300Z,21.73
2018-08-11T17:22:36.771Z,21.53
2018-08-11T17:25:05.592Z,21.32
2018-08-11T17:27:34.362Z,21.20
2018-08-11T17:30:02.724Z,21.13
2018-08-11T17:32:31.242Z,20.93
2018-08-11T17:35:00.260Z,21.08
2018-08-11T17:37:28.803Z,20.91
2018-08-11T17:39:57.611Z,20.58
2018-08-11T17:42:27.065Z,20.24
2018-08-11T17:44:55.509Z,20.20
2018-08-11T17:47:30.269Z,20.02
2018-08-11T17:50:00.507Z,19.97
2018-08-11T17:52:35.090Z,19.67
2018-08-11T17:55:06.393Z,19.47
2018-08-11T17:57:37.680Z,19.36
2018-08-11T18:00:09.482Z,19.31
2018-08-11T18:02:38.511Z,19.72
2018-08-11T18:05:07.137Z,20.06
2018-08-11T18:07:35.565Z,19.83
2018-08-11T18:10:06.324Z,19.34
2018-08-11T18:12:34.801Z,19.45
2018-08-11T18:15:03.456Z,19.22
2018-08-11T18:17:32.142Z,19.05
2018-08-11T18:20:01.209Z,18.98
2018-08-11T18:22:29.989Z,18.76
2018-08-11T18:24:58.356Z,18.69
2018-08-11T18:27:26.791Z,18.61
2018-08-11T18:29:55.154Z,18.46
2018-08-11T18:32:23.462Z,18.32
2018-08-11T18:34:51.918Z,18.34
2018-08-11T18:37:20.195Z,18.20
2018-08-11T18:39:48.710Z,18.14
2018-08-11T18:42:17.678Z,18.12
2018-08-11T18:47:32.035Z,18.01
2018-08-11T18:50:02.321Z,17.90
2018-08-11T18:52:40.859Z,17.86
2018-08-11T18:55:17.758Z,17.74
2018-08-11T18:57:50.981Z,17.63
2018-08-11T19:00:22.104Z,17.63
2018-08-11T19:02:50.654Z,17.54
2018-08-11T19:05:25.124Z,17.41
2018-08-11T19:07:56.892Z,17.42
2018-08-11T19:10:28.522Z,17.39
2018-08-11T19:12:57.278Z,17.31
2018-08-11T19:15:27.496Z,17.20
2018-08-11T19:17:57.030Z,17.15
2018-08-11T19:20:26.822Z,17.19
2018-08-11T19:22:55.919Z,17.00
2018-08-11T19:25:26.121Z,16.88
2018-08-11T19:27:54.968Z,16.92
2018-08-11T19:30:23.611Z,16.75
2018-08-11T19:32:52.015Z,16.71
2018-08-11T19:35:20.595Z,16.71
2018-08-11T19:37:49.125Z,16.72
2018-08-11T19:40:17.663Z,16.64
2018-08-11T19:42:45.990Z,16.66
2018-08-11T19:45:14.552Z,16.65
2018-08-11T19:47:43.174Z,16.57
2018-08-11T19:50:12.210Z,16.54
2018-08-11T19:52:41.265Z,16.52
2018-08-11T19:55:10.224Z,16.47
2018-08-11T19:57:38.536Z,16.44
2018-08-11T20:00:11.675Z,16.40
2018-08-11T20:02:40.736Z,16.37
2018-08-11T20:05:09.938Z,16.31
2018-08-11T20:07:38.345Z,16.27
2018-08-11T20:10:07.364Z,16.23
2018-08-11T20:12:36.310Z,16.15
2018-08-11T20:15:06.077Z,16.13
2018-08-11T20:17:34.515Z,16.11
2018-08-11T20:20:03.119Z,16.14
2018-08-11T20:22:31.521Z,16.07
2018-08-11T20:25:00.041Z,16.04
2018-08-11T20:27:28.340Z,16.03
2018-08-11T20:29:56.625Z,16.08
2018-08-11T20:32:25.020Z,16.08
2018-08-11T20:34:53.299Z,16.04
2018-08-11T20:37:21.974Z,16.04
2018-08-11T20:39:50.409Z,16.00
2018-08-11T20:42:18.841Z,15.98
2018-08-11T20:44:47.800Z,15.94
2018-08-11T20:47:16.079Z,15.91
2018-08-11T20:49:44.635Z,15.88
2018-08-11T20:52:13.196Z,15.79
2018-08-11T20:54:41.490Z,15.80
2018-08-11T20:57:09.992Z,15.78
2018-08-11T20:59:38.626Z,15.72
2018-08-11T21:02:06.982Z,15.66
2018-08-11T21:04:35.432Z,15.65
2018-08-11T21:07:03.848Z,15.61
2018-08-11T21:09:32.168Z,15.59
2018-08-11T21:12:00.574Z,15.56
2018-08-11T21:14:28.827Z,15.53
2018-08-11T21:16:57.730Z,15.53
2018-08-11T21:19:25.989Z,15.48
2018-08-11T21:21:54.493Z,15.48
2018-08-11T21:24:22.750Z,15.42
2018-08-11T21:26:51.138Z,15.41
2018-08-11T21:29:19.421Z,15.41
2018-08-11T21:31:48.007Z,15.47
2018-08-11T21:34:16.342Z,15.43
2018-08-11T21:36:44.812Z,15.34
2018-08-11T21:39:13.970Z,15.24
2018-08-11T21:41:42.415Z,15.19
2018-08-11T21:44:10.537Z,15.17
2018-08-11T21:46:38.682Z,15.21
2018-08-11T21:49:08.292Z,15.17
2018-08-11T21:51:36.575Z,15.15
2018-08-11T21:54:04.963Z,15.14
2018-08-11T21:56:33.289Z,15.12
2018-08-11T21:59:01.688Z,15.10
2018-08-11T22:01:29.954Z,15.07
2018-08-11T22:03:58.053Z,15.08
2018-08-11T22:06:26.177Z,15.09
2018-08-11T22:08:54.513Z,15.05
2018-08-11T22:11:23.055Z,15.04
2018-08-11T22:13:51.539Z,15.05
2018-08-11T22:16:20.083Z,15.01
2018-08-11T22:18:48.562Z,15.00
2018-08-11T22:21:16.970Z,14.99
2018-08-11T22:23:45.328Z,14.97
2018-08-11T22:26:14.017Z,14.95
2018-08-11T22:28:42.461Z,14.91
2018-08-11T22:31:10.838Z,14.88
2018-08-11T22:33:39.340Z,14.82
2018-08-11T22:36:07.872Z,14.78
2018-08-11T22:38:36.615Z,14.71
2018-08-11T22:41:05.180Z,14.72
2018-08-11T22:43:33.967Z,14.67
2018-08-11T22:46:02.584Z,14.64
2018-08-11T22:48:30.909Z,14.64
2018-08-11T22:50:59.255Z,14.61
2018-08-11T22:53:27.690Z,14.64
2018-08-11T22:55:56.137Z,14.59
2018-08-11T22:58:24.724Z,14.61
2018-08-11T23:00:53.140Z,14.59
2018-08-11T23:03:21.606Z,14.58
2018-08-11T23:05:50.174Z,14.54
2018-08-11T23:08:18.536Z,14.51
2018-08-11T23:10:47.011Z,14.47
2018-08-11T23:13:15.281Z,14.48
2018-08-11T23:15:43.747Z,14.44
2018-08-11T23:18:12.206Z,14.42
2018-08-11T23:20:40.508Z,14.37
2018-08-11T23:23:08.884Z,14.37
2018-08-11T23:25:37.466Z,14.38
2018-08-11T23:28:05.917Z,14.35
2018-08-11T23:30:34.385Z,14.34
2018-08-11T23:33:02.742Z,14.34
2018-08-11T23:35:31.149Z,14.33
2018-08-11T23:37:59.557Z,14.34
2018-08-11T23:40:27.980Z,14.29
2018-08-11T23:42:56.628Z,14.23
2018-08-11T23:45:25.092Z,14.20
2018-08-11T23:47:53.670Z,14.20
2018-08-11T23:50:22.327Z,14.15
2018-08-11T23:52:51.769Z,14.16
2018-08-11T23:55:20.388Z,14.10
2018-08-11T23:57:48.642Z,14.10
